Kona, Kentucky
Current Conditions -  °F | °C
As of 6:15 PM on Friday 19 Dec 2014 (Local Time) from KLNP Reporting Station
Clear Clear  
Wind Chill: 34°   Ceiling: Unl
Heat Index: 34°   Visibility: 10mi
Dew Point: 25°   Wind: 3mph
Humidity: 70%   Direction: 20°NNE
Pressure: 30.16"   Gusts: NA
Location:  37.1283°N, 82.8498°W
Report Text: KLNP 192315Z AUTO 02003KT 10SM CLR 01/M04 A3016 RMK AO2
Loading
Personal Weather Stations






























Interactive Weather Map New forecast layout! Learn more

10-Day Weather Forecast

Advertisements
Track Severe Weather on mobile